Date,TemperatureHighF,TemperatureAvgF,TemperatureLowF,DewpointHighF,DewpointAvgF,DewpointLowF,HumidityHigh,HumidityAvg,HumidityLow,PressureMaxIn,PressureMinIn,WindSpeedMaxMPH,WindSpeedAvgMPH,GustSpeedMaxMPH,PrecipitationSumIn
2013-3-1,53.0,41.8,32.0,34.0,31.5,28.0,89,68,45,30.07,29.95,7,1,15,0.00
2013-3-2,43.0,36.7,29.0,31.0,28.0,26.0,92,71,55,30.11,30.02,6,2,16,0.00
2013-3-3,49.0,37.6,30.0,28.0,26.0,23.0,85,65,37,30.14,30.05,6,2,16,0.00
2013-3-4,65.0,46.6,28.0,46.0,32.7,25.0,91,64,31,30.18,30.01,4,1,13,0.00
2013-3-5,73.0,57.2,40.0,60.0,50.5,35.0,93,79,54,30.06,29.82,10,3,21,0.02
2013-3-6,53.0,42.9,34.0,37.0,30.4,26.0,93,63,42,30.21,30.03,7,2,18,0.02
2013-3-7,65.0,45.0,29.0,36.0,31.0,27.0,93,63,27,30.28,30.16,4,1,9,0.00
2013-3-8,72.0,52.0,34.0,38.0,32.8,26.0,92,55,18,30.27,30.15,3,0,9,0.00
2013-3-9,71.0,56.2,42.0,42.0,38.3,35.0,82,54,30,30.23,30.09,5,1,12,0.00
2013-3-10,77.0,62.6,50.0,54.0,49.1,38.0,83,63,41,30.10,29.98,6,2,16,0.00
2013-3-11,67.0,56.1,48.0,62.0,53.2,45.0,97,90,77,29.99,29.78,7,2,18,1.37
2013-3-12,63.0,48.7,38.0,45.0,37.6,33.0,94,70,35,30.12,29.88,5,1,12,0.13
2013-3-13,63.0,50.5,37.0,39.0,32.8,25.0,92,55,25,30.26,30.11,7,2,19,0.00
2013-3-14,63.0,45.7,30.0,32.0,25.8,20.0,84,51,20,30.38,30.22,5,1,11,0.00
2013-3-15,74.0,54.2,36.0,47.0,38.9,31.0,91,61,31,30.27,30.07,6,2,13,0.00
2013-3-16,75.0,60.0,43.0,54.0,48.8,42.0,98,71,39,30.09,29.94,8,2,17,0.00
2013-3-17,69.0,61.5,53.0,62.0,58.4,52.0,98,90,76,30.01,29.90,3,0,11,0.00
2013-3-18,80.0,66.3,57.0,67.0,61.3,56.0,97,85,60,29.93,29.76,8,1,19,0.37
2013-3-19,76.0,61.9,54.0,57.0,50.7,38.0,97,71,29,30.01,29.78,7,1,15,0.59
2013-3-20,65.0,53.9,42.0,40.0,34.1,29.0,71,49,28,30.08,29.93,4,1,9,0.01
2013-3-21,63.0,48.7,35.0,34.0,28.8,19.0,92,52,19,30.01,29.88,6,1,13,0.00
2013-3-22,56.0,50.1,44.0,43.0,33.2,25.0,81,53,40,29.99,29.90,6,2,12,0.00
2013-3-23,65.0,55.8,49.0,57.0,50.5,43.0,97,83,74,29.92,29.60,5,2,10,0.25
2013-3-24,77.0,64.3,45.0,66.0,56.1,33.0,99,77,46,29.82,29.48,10,4,27,0.38
2013-3-25,56.0,45.6,37.0,33.0,26.8,22.0,73,50,27,30.15,29.82,11,4,22,0.01
2013-3-26,53.0,39.5,28.0,28.0,26.1,23.0,87,61,38,30.31,30.15,10,2,17,0.00
2013-3-27,60.0,42.6,27.0,32.0,27.4,24.0,91,60,29,30.38,30.23,5,1,12,0.00
2013-3-28,70.0,51.6,34.0,40.0,32.6,29.0,86,53,24,30.33,30.20,5,1,9,0.00
2013-3-29,74.0,57.1,39.0,44.0,37.8,34.0,92,55,25,30.30,30.14,5,1,12,0.00
2013-3-30,75.0,60.1,44.0,57.0,49.6,-99.9,97,74,46,30.20,30.03,7,2,14,0.00
2013-3-31,79.0,66.0,54.0,63.0,59.0,53.0,98,80,51,30.04,29.84,9,3,18,0.00